createdAt,value
2023-05-10T00:01:20.183Z,19.2
2023-05-10T00:03:20.321Z,19.2
2023-05-10T00:05:20.215Z,19.3
2023-05-10T00:07:20.171Z,19.0
2023-05-10T00:09:20.194Z,19.0
2023-05-10T00:11:22.894Z,19.1
2023-05-10T00:13:20.199Z,19.0
2023-05-10T00:15:20.160Z,18.9
2023-05-10T00:17:20.199Z,19.0
2023-05-10T00:19:20.195Z,19.2
2023-05-10T00:21:20.276Z,19.4
2023-05-10T00:23:20.227Z,19.5
2023-05-10T00:25:20.268Z,19.4
2023-05-10T00:27:20.161Z,19.4
2023-05-10T00:30:21.727Z,19.2
2023-05-10T00:32:20.282Z,19.4
2023-05-10T00:34:20.493Z,19.3
2023-05-10T00:35:22.536Z,19.4
2023-05-10T00:38:20.215Z,19.4
2023-05-10T00:40:20.267Z,19.4
2023-05-10T00:42:20.335Z,19.5
2023-05-10T00:44:20.240Z,19.6
2023-05-10T00:46:20.309Z,20.1
2023-05-10T00:48:20.260Z,20.5
2023-05-10T00:50:20.181Z,20.8
2023-05-10T00:52:20.191Z,20.9
2023-05-10T00:54:20.142Z,21.0
2023-05-10T00:56:20.270Z,20.7
2023-05-10T00:58:20.174Z,20.6
2023-05-10T01:00:20.210Z,20.4
2023-05-10T01:02:20.310Z,20.5
2023-05-10T01:04:20.336Z,20.6
2023-05-10T01:06:20.389Z,20.7
2023-05-10T01:08:20.184Z,20.8
2023-05-10T01:10:23.215Z,20.8
2023-05-10T01:12:20.314Z,20.8
2023-05-10T01:14:20.200Z,20.9
2023-05-10T01:16:20.384Z,20.8
2023-05-10T01:18:20.290Z,20.8
2023-05-10T01:20:20.472Z,20.4
2023-05-10T01:22:20.304Z,20.4
2023-05-10T01:24:20.249Z,20.5
2023-05-10T01:26:20.257Z,20.4
2023-05-10T01:28:20.216Z,20.6
2023-05-10T01:32:20.264Z,20.4
2023-05-10T01:34:20.204Z,20.5
2023-05-10T01:36:20.299Z,20.3
2023-05-10T01:38:20.179Z,20.4
2023-05-10T01:40:20.254Z,20.3
2023-05-10T01:42:20.364Z,20.0
2023-05-10T01:44:20.344Z,19.8
2023-05-10T01:46:20.215Z,19.6
2023-05-10T01:48:20.223Z,19.4
2023-05-10T01:50:20.259Z,19.5
2023-05-10T01:52:20.256Z,19.4
2023-05-10T01:54:20.253Z,19.6
2023-05-10T01:56:20.331Z,19.7
2023-05-10T01:58:20.262Z,19.6
2023-05-10T02:00:20.256Z,19.6
2023-05-10T02:02:20.234Z,19.8
2023-05-10T02:04:20.434Z,19.6
2023-05-10T02:06:20.234Z,19.6
2023-05-10T02:08:20.271Z,19.6
2023-05-10T02:14:28.589Z,19.5
2023-05-10T02:16:28.903Z,19.4
2023-05-10T02:18:28.575Z,19.4
2023-05-10T02:20:33.511Z,19.3
2023-05-10T02:22:28.612Z,19.3
2023-05-10T02:24:29.005Z,19.3
2023-05-10T02:26:28.642Z,19.5
2023-05-10T02:28:28.722Z,19.3
2023-05-10T02:30:28.762Z,19.3
2023-05-10T02:32:28.699Z,19.5
2023-05-10T02:34:28.663Z,19.4
2023-05-10T02:36:28.795Z,19.5
2023-05-10T02:38:30.112Z,19.6
2023-05-10T02:40:28.951Z,19.8
2023-05-10T02:42:28.663Z,19.7
2023-05-10T02:44:32.021Z,19.6
2023-05-10T02:46:28.959Z,19.6
2023-05-10T02:48:31.071Z,19.3
2023-05-10T02:50:28.703Z,19.1
2023-05-10T02:52:28.708Z,18.9
2023-05-10T02:54:28.812Z,18.8
2023-05-10T02:56:28.859Z,18.8
2023-05-10T02:58:29.038Z,18.8
2023-05-10T03:00:28.775Z,18.8
2023-05-10T03:02:28.668Z,18.9
2023-05-10T03:04:28.592Z,18.8
2023-05-10T03:06:28.694Z,18.9
2023-05-10T03:08:28.824Z,18.9
2023-05-10T03:10:28.979Z,19.0
2023-05-10T03:12:31.684Z,19.1
2023-05-10T03:14:28.704Z,19.3
2023-05-10T03:16:28.842Z,19.3
2023-05-10T03:18:33.550Z,19.2
2023-05-10T03:20:28.788Z,19.3
2023-05-10T03:22:28.676Z,19.5
2023-05-10T03:24:28.717Z,19.6
2023-05-10T03:26:28.934Z,19.4
2023-05-10T03:28:28.662Z,19.8
2023-05-10T03:30:28.792Z,19.8
2023-05-10T03:32:28.806Z,19.6
2023-05-10T03:34:28.824Z,19.6
2023-05-10T03:36:28.928Z,19.4
2023-05-10T03:38:30.480Z,19.3
2023-05-10T03:40:28.751Z,19.4
2023-05-10T03:42:28.724Z,19.4
2023-05-10T03:44:28.732Z,19.6
2023-05-10T03:46:29.065Z,19.7
2023-05-10T03:48:28.863Z,19.7
2023-05-10T03:50:28.728Z,20.0
2023-05-10T03:52:29.076Z,20.1
2023-05-10T03:54:28.720Z,20.1
2023-05-10T03:56:28.809Z,20.3
2023-05-10T03:58:28.716Z,20.6
2023-05-10T04:00:28.681Z,20.5
2023-05-10T04:02:28.793Z,20.2
2023-05-10T04:04:28.720Z,20.4
2023-05-10T04:06:28.964Z,20.3
2023-05-10T04:08:28.751Z,20.3
2023-05-10T04:10:28.653Z,20.1
2023-05-10T04:12:28.779Z,20.2
2023-05-10T04:14:29.019Z,20.4
2023-05-10T04:16:29.918Z,20.3
2023-05-10T04:18:29.409Z,20.4
2023-05-10T04:20:33.498Z,20.4
2023-05-10T04:22:28.778Z,20.2
2023-05-10T04:24:28.809Z,20.2
2023-05-10T04:26:28.786Z,23.5
2023-05-10T04:28:28.735Z,19.3
2023-05-10T04:30:28.904Z,18.7
2023-05-10T04:32:28.710Z,20.5
2023-05-10T04:34:29.073Z,20.9
2023-05-10T04:37:28.663Z,21.1
2023-05-10T04:39:28.783Z,20.5
2023-05-10T04:41:29.092Z,21.2
2023-05-10T04:43:28.764Z,21.5
2023-05-10T04:45:28.720Z,21.0
2023-05-10T04:47:28.688Z,20.9
2023-05-10T04:49:28.838Z,21.1
2023-05-10T04:51:32.237Z,20.9
2023-05-10T04:53:28.721Z,21.1
2023-05-10T04:55:28.786Z,21.0
2023-05-10T04:57:28.810Z,20.8
2023-05-10T04:59:30.383Z,21.0
2023-05-10T05:01:28.691Z,20.9
2023-05-10T05:03:28.738Z,21.2
2023-05-10T05:05:28.917Z,21.5
2023-05-10T05:07:28.682Z,21.2
2023-05-10T05:09:28.710Z,21.2
2023-05-10T05:11:31.242Z,21.3
2023-05-10T05:13:31.691Z,21.5
2023-05-10T05:15:29.285Z,21.5
2023-05-10T05:17:28.744Z,21.5
2023-05-10T05:19:28.711Z,21.4
2023-05-10T05:21:28.804Z,21.3
2023-05-10T05:23:28.726Z,21.3
2023-05-10T05:25:28.847Z,21.0
2023-05-10T05:27:28.771Z,21.4
2023-05-10T05:29:28.691Z,21.8
2023-05-10T05:31:28.726Z,21.8
2023-05-10T05:33:28.709Z,21.4
2023-05-10T05:35:28.733Z,21.4
2023-05-10T05:37:28.800Z,21.4
2023-05-10T05:39:28.790Z,21.7
2023-05-10T05:41:28.707Z,21.5
2023-05-10T05:43:28.825Z,21.3
2023-05-10T05:45:28.705Z,21.4
2023-05-10T05:47:28.800Z,21.5
2023-05-10T05:49:28.911Z,21.5
2023-05-10T05:51:28.744Z,21.5
2023-05-10T05:53:33.612Z,21.3
2023-05-10T05:55:28.784Z,21.4
2023-05-10T05:57:28.759Z,21.3
2023-05-10T05:59:28.783Z,21.2
2023-05-10T06:01:28.893Z,21.1
2023-05-10T06:03:28.784Z,20.9
2023-05-10T06:05:28.912Z,20.7
2023-05-10T06:07:28.734Z,20.9
2023-05-10T06:09:28.794Z,20.8
2023-05-10T06:11:28.747Z,20.6
2023-05-10T06:13:28.869Z,20.4
2023-05-10T06:15:28.746Z,20.4
2023-05-10T06:17:28.775Z,20.7
2023-05-10T06:19:28.745Z,20.7
2023-05-10T06:21:28.822Z,20.5
2023-05-10T06:23:28.801Z,20.7
2023-05-10T06:25:28.838Z,20.7
2023-05-10T06:27:28.796Z,20.4
2023-05-10T06:29:28.809Z,19.9
2023-05-10T06:31:28.802Z,20.0
2023-05-10T06:33:28.798Z,20.3
2023-05-10T06:35:31.999Z,20.0
2023-05-10T06:37:28.751Z,20.0
2023-05-10T06:39:29.025Z,19.8
2023-05-10T06:41:28.839Z,19.9
2023-05-10T06:43:28.780Z,20.4
2023-05-10T06:45:28.807Z,20.3
2023-05-10T06:47:28.996Z,20.3
2023-05-10T06:49:29.035Z,20.2
2023-05-10T06:51:28.811Z,20.3
2023-05-10T06:53:28.791Z,20.3
2023-05-10T06:55:33.254Z,20.2
2023-05-10T06:57:31.744Z,20.4
2023-05-10T06:59:29.936Z,20.4
2023-05-10T07:01:28.858Z,20.4
2023-05-10T07:03:30.924Z,20.3
2023-05-10T07:05:29.170Z,20.2
2023-05-10T07:07:28.811Z,20.0
2023-05-10T07:09:28.803Z,20.1
2023-05-10T07:11:29.000Z,20.3
2023-05-10T07:13:28.889Z,20.1
2023-05-10T07:15:28.852Z,20.1
2023-05-10T07:17:28.940Z,20.0
2023-05-10T07:19:28.832Z,20.0
2023-05-10T07:21:28.889Z,20.0
2023-05-10T07:23:28.824Z,19.7
2023-05-10T07:25:28.912Z,19.8
2023-05-10T07:27:28.788Z,19.9
2023-05-10T07:29:28.798Z,20.3
2023-05-10T07:31:28.914Z,20.2
2023-05-10T07:33:28.799Z,20.0
2023-05-10T07:35:28.785Z,20.1
2023-05-10T07:37:28.821Z,20.0
2023-05-10T07:39:28.827Z,19.9
2023-05-10T07:41:28.897Z,20.0
2023-05-10T07:43:28.812Z,19.4
2023-05-10T07:45:28.842Z,19.4
2023-05-10T07:47:28.933Z,19.3
2023-05-10T07:49:29.504Z,19.1
2023-05-10T07:51:28.896Z,19.2
2023-05-10T07:53:28.927Z,19.1
2023-05-10T07:55:28.947Z,18.9
2023-05-10T07:57:33.719Z,18.9
2023-05-10T07:59:28.816Z,18.9
2023-05-10T08:01:28.934Z,19.0
2023-05-10T08:03:29.003Z,19.0
2023-05-10T08:05:29.216Z,19.1
2023-05-10T08:07:28.835Z,19.2
2023-05-10T08:09:28.936Z,19.3
2023-05-10T08:11:28.808Z,19.0
2023-05-10T08:13:33.018Z,19.0
2023-05-10T08:15:28.863Z,19.0
2023-05-10T08:18:28.951Z,19.1
2023-05-10T08:20:29.123Z,19.2
2023-05-10T08:22:28.855Z,19.3
2023-05-10T08:24:33.792Z,19.5
2023-05-10T08:26:28.838Z,19.4
2023-05-10T08:30:06.882Z,18.8
2023-05-10T08:32:06.173Z,19.0
2023-05-10T08:34:06.172Z,19.0
2023-05-10T08:36:06.216Z,19.3
2023-05-10T08:38:06.251Z,19.5
2023-05-10T08:40:06.141Z,19.5
2023-05-10T08:42:06.230Z,19.4
2023-05-10T08:44:06.196Z,19.4
2023-05-10T08:46:07.080Z,19.5
2023-05-10T08:48:06.289Z,19.4
2023-05-10T08:50:06.183Z,19.4
2023-05-10T08:52:06.216Z,19.3
2023-05-10T08:54:06.255Z,19.7
2023-05-10T08:56:06.364Z,19.6
2023-05-10T08:58:07.038Z,19.4
2023-05-10T09:00:06.348Z,19.3
2023-05-10T09:02:06.192Z,19.2
2023-05-10T09:04:06.378Z,19.2
2023-05-10T09:06:06.270Z,19.3
2023-05-10T09:08:06.247Z,19.1
2023-05-10T09:10:06.213Z,19.0
2023-05-10T09:12:06.349Z,18.8
2023-05-10T09:14:06.473Z,19.0
2023-05-10T09:16:17.463Z,19.0
2023-05-10T09:18:06.378Z,19.0
2023-05-10T09:20:06.173Z,19.0
2023-05-10T09:22:06.309Z,19.2
2023-05-10T09:24:06.218Z,19.0
2023-05-10T09:26:06.305Z,19.1
2023-05-10T09:28:06.245Z,19.1
2023-05-10T09:30:10.105Z,19.3
2023-05-10T09:32:06.269Z,19.1
2023-05-10T09:34:06.288Z,18.9
2023-05-10T09:36:06.202Z,18.8
2023-05-10T09:38:06.628Z,18.8
2023-05-10T09:40:06.374Z,18.8
2023-05-10T09:42:06.290Z,18.9
2023-05-10T09:44:06.311Z,18.8
2023-05-10T09:46:06.333Z,18.8
2023-05-10T09:48:06.435Z,18.9
2023-05-10T09:50:06.295Z,18.9
2023-05-10T09:52:06.751Z,19.1
2023-05-10T09:54:06.317Z,18.9
2023-05-10T09:56:06.304Z,19.0
2023-05-10T09:58:06.285Z,19.1
2023-05-10T10:00:06.428Z,19.1
2023-05-10T10:02:06.347Z,19.3
2023-05-10T10:04:06.299Z,19.3
2023-05-10T10:06:11.187Z,19.4
2023-05-10T10:08:06.286Z,19.4
2023-05-10T10:10:06.332Z,19.5
2023-05-10T10:12:06.279Z,19.8
2023-05-10T10:14:06.675Z,19.5
2023-05-10T10:16:09.456Z,19.6
2023-05-10T10:18:06.325Z,19.4
2023-05-10T10:20:06.289Z,19.3
2023-05-10T10:22:06.318Z,19.0
2023-05-10T10:24:06.456Z,19.2
2023-05-10T10:26:06.295Z,19.2
2023-05-10T10:28:06.244Z,19.3
2023-05-10T10:30:06.374Z,19.3
2023-05-10T10:32:09.647Z,19.4
2023-05-10T10:34:06.649Z,19.2
2023-05-10T10:37:06.709Z,19.0
2023-05-10T10:39:06.502Z,19.2
2023-05-10T10:41:06.262Z,19.3
2023-05-10T10:43:06.690Z,19.3
2023-05-10T10:45:06.263Z,19.5
2023-05-10T10:46:09.460Z,19.5
2023-05-10T10:49:06.314Z,19.4
2023-05-10T10:51:06.289Z,19.2
2023-05-10T10:53:06.494Z,19.3
2023-05-10T10:55:06.353Z,19.3
2023-05-10T10:57:06.235Z,19.2
2023-05-10T10:59:06.355Z,19.6
2023-05-10T11:01:06.426Z,19.5
2023-05-10T11:03:09.327Z,19.4
2023-05-10T11:05:06.310Z,19.1
2023-05-10T11:07:06.529Z,19.0
2023-05-10T11:09:06.338Z,18.9
2023-05-10T11:11:06.507Z,18.8
2023-05-10T11:13:06.397Z,18.9
2023-05-10T11:15:06.286Z,18.9
2023-05-10T11:17:06.371Z,18.8
2023-05-10T11:19:06.368Z,18.8
2023-05-10T11:21:06.335Z,18.8
2023-05-10T11:23:06.308Z,19.1
2023-05-10T11:25:06.295Z,18.9
2023-05-10T11:27:06.434Z,18.9
2023-05-10T11:29:06.302Z,19.0
2023-05-10T11:31:06.586Z,18.7
2023-05-10T11:33:06.285Z,18.5
2023-05-10T11:35:06.457Z,18.5
2023-05-10T11:37:06.431Z,18.8
2023-05-10T11:39:06.362Z,18.6
2023-05-10T11:41:06.289Z,18.7
2023-05-10T11:43:08.156Z,19.1
2023-05-10T11:45:06.376Z,18.9
2023-05-10T11:47:06.275Z,18.8
2023-05-10T11:49:06.329Z,18.8
2023-05-10T11:51:06.408Z,19.0
2023-05-10T11:53:06.463Z,19.2
2023-05-10T11:55:06.484Z,19.2
2023-05-10T11:57:06.614Z,19.2
2023-05-10T11:59:06.304Z,18.9
2023-05-10T12:01:06.379Z,19.1
2023-05-10T12:03:06.500Z,19.5
2023-05-10T12:05:09.602Z,19.6
2023-05-10T12:07:06.322Z,19.4
2023-05-10T12:09:06.334Z,19.5
2023-05-10T12:11:06.382Z,19.8
2023-05-10T12:13:06.343Z,19.9
2023-05-10T12:15:06.384Z,19.9
2023-05-10T12:17:08.684Z,20.0
2023-05-10T12:19:06.722Z,20.0
2023-05-10T12:21:06.466Z,19.8
2023-05-10T12:23:06.513Z,19.8
2023-05-10T12:25:06.388Z,19.6
2023-05-10T12:27:06.364Z,19.6
2023-05-10T12:29:06.558Z,19.5
2023-05-10T12:31:06.344Z,19.5
2023-05-10T12:33:06.357Z,19.7
2023-05-10T12:35:06.748Z,19.9
2023-05-10T12:37:06.315Z,19.8
2023-05-10T12:39:06.433Z,19.7
2023-05-10T12:41:06.393Z,19.6
2023-05-10T12:43:06.353Z,19.4
2023-05-10T12:45:06.623Z,19.4
2023-05-10T12:47:06.375Z,19.3
2023-05-10T12:49:09.636Z,19.2
2023-05-10T12:51:06.482Z,19.4
2023-05-10T12:53:06.431Z,19.2
2023-05-10T12:55:07.322Z,19.5
2023-05-10T12:57:06.525Z,19.4
2023-05-10T12:59:06.382Z,19.1
2023-05-10T13:01:06.541Z,18.8
2023-05-10T13:03:06.458Z,18.5
2023-05-10T13:05:06.536Z,18.5
2023-05-10T13:07:06.413Z,18.8
2023-05-10T13:09:06.423Z,18.6
2023-05-10T13:11:09.360Z,18.5
2023-05-10T13:13:06.653Z,18.4
2023-05-10T13:15:06.704Z,18.4
2023-05-10T13:17:06.488Z,18.2
2023-05-10T13:19:06.394Z,18.0
2023-05-10T13:21:06.473Z,18.3
2023-05-10T13:23:06.364Z,18.3
2023-05-10T13:25:06.413Z,18.5
2023-05-10T13:27:06.436Z,18.5
2023-05-10T13:29:08.732Z,18.5
2023-05-10T13:31:06.610Z,19.1
2023-05-10T13:33:06.465Z,19.2
2023-05-10T13:35:06.508Z,19.1
2023-05-10T13:37:06.514Z,18.9
2023-05-10T13:39:06.441Z,18.9
2023-05-10T13:41:06.503Z,18.8
2023-05-10T13:43:06.514Z,18.8
2023-05-10T13:45:06.469Z,18.8
2023-05-10T13:47:06.650Z,19.0
2023-05-10T13:49:06.520Z,19.4
2023-05-10T13:51:06.459Z,19.2
2023-05-10T13:53:06.506Z,19.1
2023-05-10T13:55:06.420Z,18.9
2023-05-10T13:57:06.689Z,19.0
2023-05-10T13:59:06.377Z,19.2
2023-05-10T14:01:06.725Z,19.1
2023-05-10T14:03:06.533Z,19.4
2023-05-10T14:05:06.555Z,19.4
2023-05-10T14:07:06.535Z,19.2
2023-05-10T14:09:15.424Z,19.4
2023-05-10T14:11:09.228Z,19.2
2023-05-10T14:13:09.536Z,19.2
2023-05-10T14:15:06.442Z,19.1
2023-05-10T14:18:06.538Z,19.4
2023-05-10T14:20:07.329Z,19.7
2023-05-10T14:22:06.766Z,19.5
2023-05-10T14:24:06.437Z,19.5
2023-05-10T14:26:06.501Z,19.4
2023-05-10T14:28:06.593Z,19.3
2023-05-10T14:30:06.660Z,19.0
2023-05-10T14:32:06.601Z,18.7
2023-05-10T14:34:06.607Z,18.5
2023-05-10T14:36:06.387Z,18.9
2023-05-10T14:38:06.579Z,19.0
2023-05-10T14:41:14.932Z,18.8
2023-05-10T14:43:17.841Z,18.9
2023-05-10T14:45:15.026Z,18.8
2023-05-10T14:48:14.908Z,18.4
2023-05-10T14:50:24.765Z,18.4
2023-05-10T14:52:14.884Z,18.3
2023-05-10T14:54:14.934Z,18.8
2023-05-10T14:56:14.890Z,18.6
2023-05-10T14:58:14.971Z,18.7
2023-05-10T15:00:15.011Z,18.9
2023-05-10T15:02:14.983Z,18.8
2023-05-10T15:04:14.904Z,18.8
2023-05-10T15:06:15.165Z,18.7
2023-05-10T15:08:14.916Z,18.7
2023-05-10T15:10:14.904Z,18.8
2023-05-10T15:12:15.022Z,19.0
2023-05-10T15:14:17.783Z,19.0
2023-05-10T15:16:14.963Z,19.0
2023-05-10T15:18:15.029Z,18.9
2023-05-10T15:20:15.329Z,18.7
2023-05-10T15:22:15.549Z,19.1
2023-05-10T15:24:14.956Z,19.0
2023-05-10T15:26:15.755Z,19.1
2023-05-10T15:28:14.891Z,19.3
2023-05-10T15:30:16.694Z,19.3
2023-05-10T15:32:15.148Z,19.3
2023-05-10T15:34:15.148Z,19.3
2023-05-10T15:36:14.927Z,19.2
2023-05-10T15:38:15.025Z,19.3
2023-05-10T15:40:15.029Z,19.3
2023-05-10T15:42:14.948Z,19.2
2023-05-10T15:44:14.910Z,19.1
2023-05-10T15:46:14.931Z,19.3
2023-05-10T15:48:14.946Z,19.3
2023-05-10T15:50:15.025Z,19.3
2023-05-10T15:52:14.971Z,19.4
2023-05-10T15:54:16.394Z,19.1
2023-05-10T15:56:15.061Z,19.3
2023-05-10T15:58:15.012Z,19.2
2023-05-10T16:00:15.001Z,19.0
2023-05-10T16:02:14.961Z,19.2
2023-05-10T16:04:14.972Z,19.3
2023-05-10T16:06:14.995Z,19.6
2023-05-10T16:08:15.015Z,19.6
2023-05-10T16:10:14.961Z,19.5
2023-05-10T16:12:15.200Z,19.2
2023-05-10T16:14:15.062Z,19.2
2023-05-10T16:16:18.335Z,19.3
2023-05-10T16:18:15.047Z,19.5
2023-05-10T16:20:15.013Z,19.1
2023-05-10T16:22:14.968Z,18.9
2023-05-10T16:24:14.936Z,18.9
2023-05-10T16:26:14.988Z,19.0
2023-05-10T16:28:15.039Z,19.0
2023-05-10T16:30:15.004Z,19.2
2023-05-10T16:32:15.006Z,19.1
2023-05-10T16:34:14.936Z,19.0
2023-05-10T16:36:18.714Z,18.7
2023-05-10T16:38:15.210Z,18.7
2023-05-10T16:40:14.987Z,18.8
2023-05-10T16:42:14.962Z,18.9
2023-05-10T16:44:14.996Z,19.0
2023-05-10T16:46:15.069Z,19.0
2023-05-10T16:48:14.971Z,19.0
2023-05-10T16:50:15.011Z,19.0
2023-05-10T16:52:19.920Z,18.9
2023-05-10T16:54:14.984Z,19.0
2023-05-10T16:56:15.048Z,18.9
2023-05-10T16:58:15.062Z,18.6
2023-05-10T17:00:14.984Z,18.8
2023-05-10T17:02:15.222Z,18.5
2023-05-10T17:04:14.998Z,18.4
2023-05-10T17:06:15.148Z,18.1
2023-05-10T17:08:14.988Z,18.1
2023-05-10T17:10:15.033Z,18.3
2023-05-10T17:12:15.036Z,18.5
2023-05-10T17:14:15.013Z,18.4
2023-05-10T17:16:15.141Z,18.5
2023-05-10T17:18:14.982Z,18.5
2023-05-10T17:20:20.639Z,18.6
2023-05-10T17:22:15.168Z,18.5
2023-05-10T17:24:15.062Z,18.8
2023-05-10T17:26:15.071Z,18.7
2023-05-10T17:28:15.194Z,18.7
2023-05-10T17:30:15.122Z,18.5
2023-05-10T17:32:15.000Z,18.5
2023-05-10T17:34:15.103Z,18.6
2023-05-10T17:36:15.025Z,18.8
2023-05-10T17:38:15.159Z,18.7
2023-05-10T17:40:15.153Z,18.9
2023-05-10T17:42:16.365Z,18.8
2023-05-10T17:44:15.157Z,18.9
2023-05-10T17:46:15.046Z,18.8
2023-05-10T17:48:18.247Z,19.0
2023-05-10T17:50:25.729Z,19.0
2023-05-10T17:52:15.024Z,19.0
2023-05-10T17:54:15.094Z,18.8
2023-05-10T17:56:15.561Z,18.9
2023-05-10T17:58:15.258Z,19.3
2023-05-10T18:00:15.089Z,19.4
2023-05-10T18:02:15.062Z,19.5
2023-05-10T18:04:15.062Z,19.8
2023-05-10T18:06:15.034Z,19.6
2023-05-10T18:08:14.980Z,19.7
2023-05-10T18:10:15.202Z,19.4
2023-05-10T18:12:15.014Z,19.3
2023-05-10T18:14:17.132Z,19.3
2023-05-10T18:16:17.466Z,19.3
2023-05-10T18:18:14.993Z,19.2
2023-05-10T18:20:15.151Z,19.1
2023-05-10T18:22:15.217Z,19.1
2023-05-10T18:24:16.751Z,19.0
2023-05-10T18:26:15.188Z,19.0
2023-05-10T18:28:16.346Z,19.0
2023-05-10T18:30:22.244Z,19.1
2023-05-10T18:32:18.317Z,19.2
2023-05-10T18:34:20.024Z,19.4
2023-05-10T18:37:20.066Z,19.3
2023-05-10T18:39:16.777Z,19.4
2023-05-10T18:41:15.104Z,19.1
2023-05-10T18:43:15.057Z,19.2
2023-05-10T18:45:15.259Z,18.9
2023-05-10T18:47:15.118Z,18.9
2023-05-10T18:49:15.056Z,18.7
2023-05-10T18:51:15.085Z,18.6
2023-05-10T18:53:15.033Z,18.8
2023-05-10T18:55:15.261Z,18.6
2023-05-10T18:57:15.127Z,18.8
2023-05-10T18:59:20.017Z,18.3
2023-05-10T19:01:15.111Z,18.3
2023-05-10T19:03:15.215Z,18.4
2023-05-10T19:05:15.298Z,18.5
2023-05-10T19:07:15.141Z,18.4
2023-05-10T19:09:15.260Z,18.5
2023-05-10T19:11:15.125Z,18.6
2023-05-10T19:13:15.093Z,18.6
2023-05-10T19:15:15.662Z,18.2
2023-05-10T19:17:15.687Z,18.4
2023-05-10T19:19:15.272Z,18.6
2023-05-10T19:21:17.785Z,18.6
2023-05-10T19:23:16.509Z,18.5
2023-05-10T19:25:15.346Z,18.6
2023-05-10T19:27:16.257Z,18.8
2023-05-10T19:29:15.104Z,18.8
2023-05-10T19:31:15.176Z,18.9
2023-05-10T19:33:15.292Z,18.8
2023-05-10T19:35:15.916Z,18.5
2023-05-10T19:37:15.432Z,18.7
2023-05-10T19:39:15.238Z,18.4
2023-05-10T19:41:15.170Z,18.6
2023-05-10T19:43:15.257Z,18.6
2023-05-10T19:45:15.238Z,18.9
2023-05-10T19:47:15.373Z,18.9
2023-05-10T19:49:15.260Z,19.0
2023-05-10T19:51:15.460Z,19.1
2023-05-10T19:53:15.169Z,19.0
2023-05-10T19:55:17.699Z,19.1
2023-05-10T19:57:15.130Z,19.0
2023-05-10T19:59:15.106Z,19.4
2023-05-10T20:01:19.685Z,19.5
2023-05-10T20:03:15.138Z,19.4
2023-05-10T20:05:16.704Z,19.3
2023-05-10T20:07:15.102Z,19.5
2023-05-10T20:09:15.048Z,19.7
2023-05-10T20:11:15.582Z,19.5
2023-05-10T20:13:15.528Z,19.6
2023-05-10T20:15:15.270Z,20.0
2023-05-10T20:17:15.200Z,19.9
2023-05-10T20:19:15.142Z,19.8
2023-05-10T20:21:15.127Z,19.9
2023-05-10T20:23:15.112Z,20.1
2023-05-10T20:25:15.122Z,20.1
2023-05-10T20:27:17.986Z,19.9
2023-05-10T20:29:15.213Z,20.0
2023-05-10T20:31:15.133Z,19.7
2023-05-10T20:33:15.247Z,19.9
2023-05-10T20:35:15.156Z,20.2
2023-05-10T20:37:15.229Z,20.2
2023-05-10T20:39:15.096Z,20.4
2023-05-10T20:41:15.179Z,20.2
2023-05-10T20:43:15.112Z,20.0
2023-05-10T20:45:15.108Z,19.9
2023-05-10T20:47:15.241Z,19.9
2023-05-10T20:51:15.297Z,20.0
2023-05-10T20:55:23.297Z,20.0
2023-05-10T20:57:23.388Z,20.1
2023-05-10T20:59:23.213Z,19.8
2023-05-10T21:01:23.302Z,19.8
2023-05-10T21:03:23.274Z,19.7
2023-05-10T21:05:23.375Z,19.8
2023-05-10T21:07:23.221Z,19.8
2023-05-10T21:09:23.616Z,19.6
2023-05-10T21:11:23.271Z,19.8
2023-05-10T21:13:23.250Z,19.9
2023-05-10T21:15:23.283Z,20.0
2023-05-10T21:17:23.298Z,19.9
2023-05-10T21:19:23.272Z,19.8
2023-05-10T21:21:23.291Z,19.9
2023-05-10T21:23:23.304Z,19.8
2023-05-10T21:25:23.333Z,19.8
2023-05-10T21:27:23.274Z,19.8
2023-05-10T21:29:23.334Z,19.7
2023-05-10T21:31:23.392Z,20.0
2023-05-10T21:33:26.155Z,20.0
2023-05-10T21:35:23.340Z,19.7
2023-05-10T21:37:23.261Z,19.6
2023-05-10T21:39:23.340Z,19.6
2023-05-10T21:41:23.307Z,19.8
2023-05-10T21:43:23.286Z,19.9
2023-05-10T21:45:23.467Z,20.0
2023-05-10T21:47:24.028Z,19.9
2023-05-10T21:49:23.355Z,19.9
2023-05-10T21:51:23.270Z,19.6
2023-05-10T21:53:23.277Z,19.8
2023-05-10T21:55:23.396Z,19.8
2023-05-10T21:57:23.360Z,19.5
2023-05-10T21:59:23.362Z,19.5
2023-05-10T22:01:23.363Z,19.4
2023-05-10T22:03:23.479Z,19.6
2023-05-10T22:05:23.289Z,19.6
2023-05-10T22:07:23.348Z,19.7
2023-05-10T22:09:23.425Z,19.6
2023-05-10T22:11:23.280Z,19.6
2023-05-10T22:13:23.351Z,19.9
2023-05-10T22:15:26.062Z,19.8
2023-05-10T22:17:23.374Z,19.9
2023-05-10T22:19:23.311Z,19.9
2023-05-10T22:21:23.274Z,19.8
2023-05-10T22:23:23.554Z,19.8
2023-05-10T22:25:23.352Z,19.5
2023-05-10T22:27:23.297Z,19.4
2023-05-10T22:29:23.350Z,19.5
2023-05-10T22:31:23.353Z,19.4
2023-05-10T22:33:23.468Z,19.4
2023-05-10T22:35:26.492Z,19.6
2023-05-10T22:37:23.752Z,19.4
2023-05-10T22:39:23.315Z,19.5
2023-05-10T22:41:25.218Z,19.5
2023-05-10T22:44:23.300Z,19.5
2023-05-10T22:46:23.457Z,19.6
2023-05-10T22:48:25.959Z,19.8
2023-05-10T22:50:26.976Z,20.0
2023-05-10T22:52:26.937Z,19.9
2023-05-10T22:54:23.301Z,19.7
2023-05-10T22:56:23.321Z,19.9
2023-05-10T22:58:25.050Z,20.4
2023-05-10T23:00:35.032Z,20.5
2023-05-10T23:02:23.358Z,20.5
2023-05-10T23:04:23.637Z,20.4
2023-05-10T23:06:26.606Z,20.1
2023-05-10T23:08:23.324Z,20.0
2023-05-10T23:10:23.417Z,20.0
2023-05-10T23:12:23.371Z,19.8
2023-05-10T23:14:23.484Z,19.7
2023-05-10T23:16:23.456Z,19.8
2023-05-10T23:18:23.413Z,19.8
2023-05-10T23:20:23.349Z,20.1
2023-05-10T23:22:23.296Z,19.9
2023-05-10T23:24:23.336Z,20.1
2023-05-10T23:26:23.387Z,20.6
2023-05-10T23:28:23.485Z,20.5
2023-05-10T23:30:24.542Z,20.6
2023-05-10T23:32:23.428Z,20.6
2023-05-10T23:34:23.355Z,20.5
2023-05-10T23:36:23.432Z,20.5
2023-05-10T23:38:23.347Z,20.5
2023-05-10T23:40:23.345Z,20.3
2023-05-10T23:42:23.333Z,20.5
2023-05-10T23:44:23.378Z,20.2
2023-05-10T23:46:23.565Z,20.2
2023-05-10T23:48:23.420Z,20.3
2023-05-10T23:50:23.433Z,20.3
2023-05-10T23:52:23.405Z,20.2
2023-05-10T23:54:23.444Z,20.4
2023-05-10T23:56:23.341Z,20.1
2023-05-10T23:58:23.341Z,20.2
